createdAt,value
2017-10-09T00:00:01.309Z,787
2017-10-09T00:00:05.597Z,787
2017-10-09T00:00:09.683Z,786.99
2017-10-09T00:00:14.135Z,786.99
2017-10-09T00:00:18.224Z,787
2017-10-09T00:00:22.310Z,786.99
2017-10-09T00:00:26.527Z,787.01
2017-10-09T00:00:30.615Z,787.02
2017-10-09T00:00:34.573Z,786.99
2017-10-09T00:00:38.785Z,787.03
2017-10-09T00:00:43.120Z,787
2017-10-09T00:00:47.335Z,787.04
2017-10-09T00:00:51.544Z,787.02
2017-10-09T00:00:55.628Z,787
2017-10-09T00:00:59.965Z,787.03
2017-10-09T00:01:04.293Z,787.04
2017-10-09T00:01:08.634Z,787.03
2017-10-09T00:01:12.846Z,787
2017-10-09T00:01:17.056Z,787.03
2017-10-09T00:01:21.018Z,787
2017-10-09T00:01:25.477Z,787.03
2017-10-09T00:01:29.939Z,787.04
2017-10-09T00:01:34.271Z,786.98
2017-10-09T00:01:38.362Z,786.99
2017-10-09T00:01:42.199Z,786.98
2017-10-09T00:01:46.161Z,787.04
2017-10-09T00:01:50.242Z,787
2017-10-09T00:01:54.452Z,787.02
2017-10-09T00:01:58.538Z,787
2017-10-09T00:02:02.623Z,786.97
2017-10-09T00:02:06.837Z,787.02
2017-10-09T00:02:10.921Z,786.98
2017-10-09T00:02:15.375Z,787.01
2017-10-09T00:02:19.342Z,787.03
2017-10-09T00:02:23.681Z,787
2017-10-09T00:02:28.012Z,787.04
2017-10-09T00:02:32.101Z,787.04
2017-10-09T00:02:36.566Z,787.05
2017-10-09T00:02:40.652Z,787.03
2017-10-09T00:02:44.987Z,787.01
2017-10-09T00:02:49.194Z,787.07
2017-10-09T00:02:53.524Z,787.05
2017-10-09T00:02:57.609Z,787.02
2017-10-09T00:03:01.870Z,787.02
2017-10-09T00:03:06.083Z,787.03
2017-10-09T00:03:10.172Z,787
2017-10-09T00:03:14.376Z,787.06
2017-10-09T00:03:18.587Z,787.05
2017-10-09T00:03:22.670Z,787.06
2017-10-09T00:03:27.131Z,787.04
2017-10-09T00:03:31.088Z,787.06
2017-10-09T00:03:35.043Z,787.06
2017-10-09T00:03:39.287Z,787.05
2017-10-09T00:03:43.247Z,787.07
2017-10-09T00:03:47.089Z,787.06
2017-10-09T00:03:51.174Z,787.08
2017-10-09T00:03:55.253Z,787.07
2017-10-09T00:03:59.584Z,787.06
2017-10-09T00:04:03.670Z,787.07
2017-10-09T00:04:07.884Z,787.04
2017-10-09T00:04:12.217Z,787.06
2017-10-09T00:04:16.306Z,787.07
2017-10-09T00:04:20.289Z,787.06
2017-10-09T00:04:24.639Z,787.06
2017-10-09T00:04:28.969Z,787.1
2017-10-09T00:04:33.051Z,787.06
2017-10-09T00:04:37.163Z,787.06
2017-10-09T00:04:41.251Z,787.04
2017-10-09T00:04:45.467Z,787.07
2017-10-09T00:04:49.802Z,787.02
2017-10-09T00:04:53.886Z,787.06
2017-10-09T00:04:57.980Z,787.08
2017-10-09T00:05:01.940Z,787.06
2017-10-09T00:05:06.157Z,787.04
2017-10-09T00:05:10.366Z,787.05
2017-10-09T00:05:14.703Z,787.06
2017-10-09T00:05:19.047Z,787.06
2017-10-09T00:05:23.382Z,787.05
2017-10-09T00:05:27.594Z,787.01
2017-10-09T00:05:31.679Z,787.03
2017-10-09T00:05:35.769Z,787.07
2017-10-09T00:05:39.980Z,787.09
2017-10-09T00:05:44.188Z,787.08
2017-10-09T00:05:48.526Z,787.07
2017-10-09T00:05:52.376Z,787.04
2017-10-09T00:05:56.715Z,787.05
2017-10-09T00:06:00.800Z,787.04
2017-10-09T00:06:04.811Z,787.05
2017-10-09T00:06:09.027Z,787.08
2017-10-09T00:06:13.112Z,787.06
2017-10-09T00:06:17.319Z,787.08
2017-10-09T00:06:21.408Z,787.08
2017-10-09T00:06:25.373Z,787.08
2017-10-09T00:06:29.585Z,787.06
2017-10-09T00:06:33.543Z,787.06
2017-10-09T00:06:37.627Z,787.04
2017-10-09T00:06:41.841Z,787.05
2017-10-09T00:06:46.182Z,787.06
2017-10-09T00:06:50.392Z,787.01
2017-10-09T00:07:20.275Z,787.02
2017-10-09T00:07:24.477Z,787.03
2017-10-09T00:07:28.558Z,787
2017-10-09T00:07:32.925Z,787.05
2017-10-09T00:07:37.008Z,787.04
2017-10-09T00:07:41.091Z,787.03
2017-10-09T00:07:45.175Z,787.04
2017-10-09T00:07:49.388Z,787.03
2017-10-09T00:07:53.595Z,787.05
2017-10-09T00:07:57.554Z,787.05
2017-10-09T00:08:01.990Z,787.04
2017-10-09T00:08:06.202Z,787.03
2017-10-09T00:08:10.161Z,787.01
2017-10-09T00:08:14.125Z,787.03
2017-10-09T00:08:18.206Z,787.01
2017-10-09T00:08:22.415Z,787.01
2017-10-09T00:08:26.880Z,787.04
2017-10-09T00:08:30.847Z,787.03
2017-10-09T00:08:34.801Z,786.99
2017-10-09T00:08:38.885Z,787.01
2017-10-09T00:08:42.973Z,787.01
2017-10-09T00:08:47.058Z,787.05
2017-10-09T00:08:51.018Z,786.97
2017-10-09T00:08:54.855Z,787.05
2017-10-09T00:08:58.939Z,786.97
2017-10-09T00:09:03.021Z,787.01
2017-10-09T00:09:07.111Z,787.02
2017-10-09T00:09:11.323Z,787.02
2017-10-09T00:09:15.535Z,787.01
2017-10-09T00:09:19.748Z,787.05
2017-10-09T00:09:23.707Z,787.04
2017-10-09T00:09:27.795Z,787.01
2017-10-09T00:09:32.132Z,786.99
2017-10-09T00:09:36.093Z,787.01
2017-10-09T00:09:40.181Z,787.01
2017-10-09T00:09:44.147Z,787.04
2017-10-09T00:09:48.109Z,787
2017-10-09T00:09:52.318Z,787.05
2017-10-09T00:09:56.528Z,787.02
2017-10-09T00:10:00.740Z,787.02
2017-10-09T00:10:04.827Z,787
2017-10-09T00:10:09.041Z,787
2017-10-09T00:10:13.003Z,786.98
2017-10-09T00:10:17.331Z,787.03
2017-10-09T00:10:21.169Z,787
2017-10-09T00:10:25.263Z,787.03
2017-10-09T00:10:29.225Z,787
2017-10-09T00:10:33.430Z,787.03
2017-10-09T00:10:37.268Z,787.04
2017-10-09T00:10:41.481Z,787.02
2017-10-09T00:10:45.576Z,787.01
2017-10-09T00:10:49.667Z,786.98
2017-10-09T00:10:53.626Z,787.01
2017-10-09T00:10:58.208Z,786.99
2017-10-09T00:11:02.188Z,786.97
2017-10-09T00:11:06.150Z,786.99
2017-10-09T00:11:10.482Z,786.94
2017-10-09T00:11:14.689Z,786.93
2017-10-09T00:11:18.908Z,786.94
2017-10-09T00:11:22.998Z,786.93
2017-10-09T00:11:26.952Z,786.94
2017-10-09T00:11:30.787Z,786.89
2017-10-09T00:11:34.991Z,786.96
2017-10-09T00:11:38.828Z,786.93
2017-10-09T00:11:42.938Z,786.96
2017-10-09T00:11:47.196Z,786.97
2017-10-09T00:11:51.527Z,786.94
2017-10-09T00:11:55.486Z,786.9
2017-10-09T00:11:59.567Z,786.9
2017-10-09T00:12:03.851Z,786.93
2017-10-09T00:12:07.818Z,786.94
2017-10-09T00:12:12.147Z,786.95
2017-10-09T00:12:16.235Z,786.93
2017-10-09T00:12:20.440Z,786.95
2017-10-09T00:12:24.522Z,786.97
2017-10-09T00:12:28.729Z,786.97
2017-10-09T00:12:32.821Z,786.94
2017-10-09T00:12:36.776Z,786.92
2017-10-09T00:12:41.242Z,786.94
2017-10-09T00:12:45.320Z,786.9
2017-10-09T00:12:49.403Z,786.88
2017-10-09T00:12:53.615Z,786.91
2017-10-09T00:12:57.816Z,786.91
2017-10-09T00:13:01.900Z,786.96
2017-10-09T00:13:06.234Z,786.94
2017-10-09T00:13:10.070Z,786.95
2017-10-09T00:13:14.148Z,786.94
2017-10-09T00:13:18.358Z,786.91
2017-10-09T00:13:22.314Z,786.92
2017-10-09T00:13:26.648Z,786.94
2017-10-09T00:13:30.729Z,786.95
2017-10-09T00:13:34.685Z,786.96
2017-10-09T00:13:39.024Z,786.94
2017-10-09T00:13:43.235Z,786.94
2017-10-09T00:13:47.570Z,786.94
2017-10-09T00:13:51.778Z,786.94
2017-10-09T00:13:55.736Z,786.97
2017-10-09T00:13:59.693Z,786.91
2017-10-09T00:14:03.897Z,786.94
2017-10-09T00:14:08.102Z,786.93
2017-10-09T00:14:12.192Z,786.92
2017-10-09T00:14:16.656Z,786.92
2017-10-09T00:14:20.749Z,786.93
2017-10-09T00:14:24.830Z,786.95
2017-10-09T00:14:29.040Z,786.93
2017-10-09T00:14:33.245Z,786.93
2017-10-09T00:14:37.335Z,786.94
2017-10-09T00:14:41.167Z,786.96
2017-10-09T00:14:45.498Z,786.95
2017-10-09T00:14:49.583Z,786.95
2017-10-09T00:14:53.923Z,786.94
2017-10-09T00:14:58.009Z,786.94
2017-10-09T00:15:01.845Z,786.93
2017-10-09T00:15:06.174Z,786.95
2017-10-09T00:15:10.633Z,786.93
2017-10-09T00:15:14.839Z,786.96
2017-10-09T00:15:19.296Z,786.96
2017-10-09T00:15:23.383Z,786.93
2017-10-09T00:15:27.342Z,786.94
2017-10-09T00:15:31.301Z,786.94
2017-10-09T00:15:35.632Z,786.93
2017-10-09T00:15:39.964Z,786.95
2017-10-09T00:15:43.926Z,786.92
2017-10-09T00:15:48.138Z,786.93
2017-10-09T00:15:52.349Z,786.93
2017-10-09T00:15:56.684Z,786.92
2017-10-09T00:16:00.896Z,786.92
2017-10-09T00:16:05.031Z,786.93
2017-10-09T00:16:09.117Z,786.94
2017-10-09T00:16:13.218Z,786.94
2017-10-09T00:16:17.439Z,786.92
2017-10-09T00:16:21.523Z,786.91
2017-10-09T00:16:25.735Z,786.91
2017-10-09T00:16:30.321Z,786.91
2017-10-09T00:16:34.277Z,786.93
2017-10-09T00:16:38.362Z,786.93
2017-10-09T00:16:42.821Z,786.9
2017-10-09T00:16:47.036Z,786.91
2017-10-09T00:16:51.376Z,786.93
2017-10-09T00:16:55.457Z,786.91
2017-10-09T00:16:59.546Z,786.93
2017-10-09T00:17:03.835Z,786.93
2017-10-09T00:17:07.921Z,786.9
2017-10-09T00:17:12.004Z,786.91
2017-10-09T00:17:15.961Z,786.9
2017-10-09T00:17:20.168Z,786.93
2017-10-09T00:17:24.263Z,786.92
2017-10-09T00:17:28.350Z,786.91
2017-10-09T00:17:32.309Z,786.93
2017-10-09T00:17:36.267Z,786.91
2017-10-09T00:17:40.600Z,786.9
2017-10-09T00:17:44.568Z,786.94
2017-10-09T00:17:48.526Z,786.89
2017-10-09T00:17:52.608Z,786.9
2017-10-09T00:17:56.938Z,786.89
2017-10-09T00:18:00.901Z,786.88
2017-10-09T00:18:05.239Z,786.87
2017-10-09T00:18:09.199Z,786.87
2017-10-09T00:18:13.283Z,786.9
2017-10-09T00:18:17.369Z,786.89
2017-10-09T00:18:21.705Z,786.84
2017-10-09T00:18:25.789Z,786.83
2017-10-09T00:18:30.123Z,786.83
2017-10-09T00:18:34.336Z,786.88
2017-10-09T00:18:38.548Z,786.87
2017-10-09T00:18:42.760Z,786.83
2017-10-09T00:18:46.973Z,786.87
2017-10-09T00:18:51.309Z,786.87
2017-10-09T00:18:55.522Z,786.81
2017-10-09T00:18:59.730Z,786.87
2017-10-09T00:19:04.089Z,786.88
2017-10-09T00:19:08.303Z,786.86
2017-10-09T00:19:12.391Z,786.86
2017-10-09T00:19:16.597Z,786.89
2017-10-09T00:19:20.550Z,786.86
2017-10-09T00:19:24.758Z,786.85
2017-10-09T00:19:28.718Z,786.88
2017-10-09T00:19:32.927Z,786.89
2017-10-09T00:19:37.129Z,786.88
2017-10-09T00:19:41.458Z,786.88
2017-10-09T00:19:45.548Z,786.86
2017-10-09T00:19:49.633Z,786.87
2017-10-09T00:19:53.839Z,786.9
2017-10-09T00:19:57.795Z,786.88
2017-10-09T00:20:01.877Z,786.9
2017-10-09T00:20:06.345Z,786.89
2017-10-09T00:20:10.301Z,786.86
2017-10-09T00:20:14.630Z,786.87
2017-10-09T00:20:18.716Z,786.82
2017-10-09T00:20:22.926Z,786.86
2017-10-09T00:20:27.008Z,786.84
2017-10-09T00:20:31.342Z,786.88
2017-10-09T00:20:35.304Z,786.86
2017-10-09T00:20:39.688Z,786.87
2017-10-09T00:20:43.899Z,786.84
2017-10-09T00:20:47.983Z,786.85
2017-10-09T00:20:52.192Z,786.85
2017-10-09T00:20:56.407Z,786.87
2017-10-09T00:21:00.496Z,786.87
2017-10-09T00:21:04.780Z,786.85
2017-10-09T00:21:08.741Z,786.81
2017-10-09T00:21:12.829Z,786.86
2017-10-09T00:21:17.041Z,786.85
2017-10-09T00:21:21.127Z,786.84
2017-10-09T00:21:24.961Z,786.79
2017-10-09T00:21:29.169Z,786.79
2017-10-09T00:21:33.510Z,786.85
2017-10-09T00:21:37.605Z,786.83
2017-10-09T00:21:41.807Z,786.83
2017-10-09T00:21:46.142Z,786.82
2017-10-09T00:21:50.105Z,786.79
2017-10-09T00:21:54.193Z,786.83
2017-10-09T00:21:58.531Z,786.86
2017-10-09T00:22:02.989Z,786.78
2017-10-09T00:22:06.946Z,786.77
2017-10-09T00:22:11.160Z,786.74
2017-10-09T00:22:15.614Z,786.76
2017-10-09T00:22:19.570Z,786.79
2017-10-09T00:22:23.528Z,786.8
2017-10-09T00:22:27.985Z,786.8
2017-10-09T00:22:31.941Z,786.78
2017-10-09T00:22:36.154Z,786.8
2017-10-09T00:22:40.486Z,786.79
2017-10-09T00:22:44.575Z,786.78
2017-10-09T00:22:48.918Z,786.76
2017-10-09T00:22:53.133Z,786.77
2017-10-09T00:22:57.216Z,786.78
2017-10-09T00:23:01.176Z,786.77
2017-10-09T00:23:05.120Z,786.74
2017-10-09T00:23:09.325Z,786.75
2017-10-09T00:23:13.412Z,786.77
2017-10-09T00:23:17.619Z,786.7
2017-10-09T00:23:21.825Z,786.76
2017-10-09T00:23:26.035Z,786.74
2017-10-09T00:23:30.145Z,786.71
2017-10-09T00:23:34.354Z,786.73
2017-10-09T00:23:38.188Z,786.76
2017-10-09T00:23:42.525Z,786.72
2017-10-09T00:23:46.483Z,786.73
2017-10-09T00:23:50.441Z,786.7
2017-10-09T00:23:54.532Z,786.72
2017-10-09T00:23:58.492Z,786.71
2017-10-09T00:24:02.604Z,786.74
2017-10-09T00:24:06.569Z,786.69
2017-10-09T00:24:10.904Z,786.71
2017-10-09T00:24:14.986Z,786.75
2017-10-09T00:24:18.951Z,786.68
2017-10-09T00:24:23.161Z,786.72
2017-10-09T00:24:27.374Z,786.71
2017-10-09T00:24:31.579Z,786.7
2017-10-09T00:24:35.668Z,786.66
2017-10-09T00:24:39.625Z,786.73
2017-10-09T00:24:43.832Z,786.71
2017-10-09T00:24:47.914Z,786.71
2017-10-09T00:24:52.250Z,786.72
2017-10-09T00:24:56.336Z,786.72
2017-10-09T00:25:00.176Z,786.7
2017-10-09T00:25:04.413Z,786.69
2017-10-09T00:25:08.622Z,786.69
2017-10-09T00:25:12.832Z,786.71
2017-10-09T00:25:17.167Z,786.73
2017-10-09T00:25:21.134Z,786.69
2017-10-09T00:25:25.223Z,786.69
2017-10-09T00:25:29.314Z,786.67
2017-10-09T00:25:33.402Z,786.66
2017-10-09T00:25:37.733Z,786.67
2017-10-09T00:25:41.694Z,786.69
2017-10-09T00:25:46.041Z,786.67
2017-10-09T00:25:50.500Z,786.69
2017-10-09T00:25:54.580Z,786.68
2017-10-09T00:25:58.785Z,786.63
2017-10-09T00:26:02.869Z,786.68
2017-10-09T00:26:07.204Z,786.65
2017-10-09T00:26:11.291Z,786.63
2017-10-09T00:26:15.375Z,786.63
2017-10-09T00:26:19.331Z,786.63
2017-10-09T00:26:23.413Z,786.61
2017-10-09T00:26:27.616Z,786.68
2017-10-09T00:26:31.703Z,786.65
2017-10-09T00:26:35.915Z,786.6
2017-10-09T00:26:40.273Z,786.65
2017-10-09T00:26:44.483Z,786.64
2017-10-09T00:26:48.693Z,786.66
2017-10-09T00:26:53.028Z,786.68
2017-10-09T00:26:57.238Z,786.67
2017-10-09T00:27:01.320Z,786.69
2017-10-09T00:27:05.529Z,786.66
2017-10-09T00:27:09.869Z,786.67
2017-10-09T00:27:14.205Z,786.68
2017-10-09T00:27:18.582Z,786.67
2017-10-09T00:27:22.662Z,786.66
2017-10-09T00:27:26.745Z,786.65
2017-10-09T00:27:30.959Z,786.66
2017-10-09T00:27:34.920Z,786.65
2017-10-09T00:27:39.132Z,786.65
2017-10-09T00:27:43.466Z,786.66
2017-10-09T00:27:47.557Z,786.65
2017-10-09T00:27:51.648Z,786.64
2017-10-09T00:27:55.730Z,786.62
2017-10-09T00:27:59.855Z,786.62
2017-10-09T00:28:03.939Z,786.65
2017-10-09T00:28:08.275Z,786.65
2017-10-09T00:28:12.609Z,786.63
2017-10-09T00:28:16.694Z,786.57
2017-10-09T00:28:21.043Z,786.6
2017-10-09T00:28:25.251Z,786.55
2017-10-09T00:28:29.334Z,786.64
2017-10-09T00:28:33.414Z,786.64
2017-10-09T00:28:37.499Z,786.64
2017-10-09T00:28:41.460Z,786.63
2017-10-09T00:28:45.674Z,786.64
2017-10-09T00:28:49.758Z,786.64
2017-10-09T00:28:53.967Z,786.62
2017-10-09T00:28:57.927Z,786.63
2017-10-09T00:29:02.208Z,786.62
2017-10-09T00:29:06.786Z,786.62
2017-10-09T00:29:10.991Z,786.62
2017-10-09T00:29:15.329Z,786.59
2017-10-09T00:29:19.538Z,786.61
2017-10-09T00:29:23.745Z,786.6
2017-10-09T00:29:27.829Z,786.62
2017-10-09T00:29:31.794Z,786.63
2017-10-09T00:29:36.125Z,786.62
2017-10-09T00:29:40.208Z,786.55
2017-10-09T00:29:44.294Z,786.6
2017-10-09T00:29:48.500Z,786.58
2017-10-09T00:29:52.722Z,786.59
2017-10-09T00:29:56.682Z,786.59
2017-10-09T00:30:00.763Z,786.61
2017-10-09T00:30:04.973Z,786.63
2017-10-09T00:30:09.442Z,786.59
2017-10-09T00:30:13.527Z,786.59
2017-10-09T00:30:17.862Z,786.6
2017-10-09T00:30:21.950Z,786.57
2017-10-09T00:30:25.913Z,786.59
2017-10-09T00:30:30.273Z,786.56
2017-10-09T00:30:34.462Z,786.61
2017-10-09T00:30:38.423Z,786.53
2017-10-09T00:30:42.510Z,786.6
2017-10-09T00:30:46.474Z,786.5
2017-10-09T00:30:50.567Z,786.54
2017-10-09T00:30:54.650Z,786.48
2017-10-09T00:30:58.607Z,786.54
2017-10-09T00:31:02.566Z,786.56
2017-10-09T00:31:06.401Z,786.59
2017-10-09T00:31:10.484Z,786.55
2017-10-09T00:31:14.445Z,786.56
2017-10-09T00:31:18.531Z,786.52
2017-10-09T00:31:22.869Z,786.54
2017-10-09T00:31:26.955Z,786.53
2017-10-09T00:31:31.163Z,786.57
2017-10-09T00:31:35.241Z,786.54
2017-10-09T00:31:39.452Z,786.55
2017-10-09T00:31:43.414Z,786.55
2017-10-09T00:31:47.501Z,786.47
2017-10-09T00:31:51.716Z,786.52
2017-10-09T00:31:55.557Z,786.55
2017-10-09T00:31:59.766Z,786.53
2017-10-09T00:32:04.106Z,786.57
2017-10-09T00:32:08.322Z,786.53
2017-10-09T00:32:12.405Z,786.51
2017-10-09T00:32:16.488Z,786.53
2017-10-09T00:32:20.573Z,786.5
2017-10-09T00:32:24.663Z,786.53
2017-10-09T00:32:28.873Z,786.51
2017-10-09T00:32:32.825Z,786.55
2017-10-09T00:32:36.782Z,786.52
2017-10-09T00:32:40.868Z,786.53
2017-10-09T00:32:44.949Z,786.51
2017-10-09T00:32:49.035Z,786.54
2017-10-09T00:32:53.121Z,786.56
2017-10-09T00:32:57.333Z,786.53
2017-10-09T00:33:01.290Z,786.51
2017-10-09T00:33:05.378Z,786.55
2017-10-09T00:33:09.588Z,786.6
2017-10-09T00:33:13.801Z,786.56
2017-10-09T00:33:17.883Z,786.51
2017-10-09T00:33:21.966Z,786.52
2017-10-09T00:33:25.928Z,786.52
2017-10-09T00:33:30.136Z,786.55
2017-10-09T00:33:34.347Z,786.49
2017-10-09T00:33:38.430Z,786.53
2017-10-09T00:33:42.638Z,786.5
2017-10-09T00:33:46.721Z,786.51
2017-10-09T00:33:50.812Z,786.55
2017-10-09T00:33:54.650Z,786.56
2017-10-09T00:33:58.738Z,786.51
2017-10-09T00:34:02.722Z,786.52
2017-10-09T00:34:06.813Z,786.49
2017-10-09T00:34:10.649Z,786.54
2017-10-09T00:34:14.990Z,786.55
2017-10-09T00:34:19.326Z,786.53
2017-10-09T00:34:23.408Z,786.55
2017-10-09T00:34:27.496Z,786.54
2017-10-09T00:34:31.703Z,786.51
2017-10-09T00:34:35.914Z,786.52
2017-10-09T00:34:39.998Z,786.49
2017-10-09T00:34:44.084Z,786.44
2017-10-09T00:34:48.415Z,786.44
2017-10-09T00:34:52.630Z,786.5
2017-10-09T00:34:56.596Z,786.5
2017-10-09T00:35:00.554Z,786.51
2017-10-09T00:35:05.241Z,786.49
2017-10-09T00:35:09.324Z,786.5
2017-10-09T00:35:13.287Z,786.51
2017-10-09T00:35:17.619Z,786.52
2017-10-09T00:35:21.824Z,786.51
2017-10-09T00:35:26.160Z,786.48
2017-10-09T00:35:30.373Z,786.5
2017-10-09T00:35:34.464Z,786.51
2017-10-09T00:35:38.672Z,786.47
2017-10-09T00:35:42.630Z,786.49
2017-10-09T00:35:46.715Z,786.52
2017-10-09T00:35:51.054Z,786.49
2017-10-09T00:35:55.262Z,786.55
2017-10-09T00:35:59.469Z,786.51
2017-10-09T00:36:03.425Z,786.53
2017-10-09T00:36:07.509Z,786.5
2017-10-09T00:36:11.727Z,786.54
2017-10-09T00:36:15.809Z,786.56
2017-10-09T00:36:20.018Z,786.54
2017-10-09T00:36:24.100Z,786.56
2017-10-09T00:36:28.302Z,786.57
2017-10-09T00:36:32.263Z,786.51
2017-10-09T00:36:36.469Z,786.52
2017-10-09T00:36:40.554Z,786.54
2017-10-09T00:36:44.886Z,786.47
2017-10-09T00:36:49.094Z,786.5
2017-10-09T00:36:53.303Z,786.5
2017-10-09T00:36:57.633Z,786.51
2017-10-09T00:37:02.038Z,786.51
2017-10-09T00:37:06.250Z,786.52
2017-10-09T00:37:10.459Z,786.51
2017-10-09T00:37:14.670Z,786.51
2017-10-09T00:37:18.624Z,786.51
2017-10-09T00:37:22.710Z,786.51
2017-10-09T00:37:26.670Z,786.51
2017-10-09T00:37:30.875Z,786.52
2017-10-09T00:37:34.833Z,786.51
2017-10-09T00:37:39.038Z,786.56
2017-10-09T00:37:43.372Z,786.53
2017-10-09T00:37:47.459Z,786.52
2017-10-09T00:37:51.546Z,786.52
2017-10-09T00:37:55.507Z,786.53
2017-10-09T00:37:59.466Z,786.46
2017-10-09T00:38:03.549Z,786.51
2017-10-09T00:38:07.635Z,786.53
2017-10-09T00:38:11.723Z,786.5
2017-10-09T00:38:15.813Z,786.53
2017-10-09T00:38:20.142Z,786.55
2017-10-09T00:38:24.222Z,786.57
2017-10-09T00:38:28.309Z,786.55
2017-10-09T00:38:32.397Z,786.51
2017-10-09T00:38:36.482Z,786.54
2017-10-09T00:38:40.566Z,786.48
2017-10-09T00:38:44.654Z,786.52
2017-10-09T00:38:48.873Z,786.48
2017-10-09T00:38:52.709Z,786.5
2017-10-09T00:38:57.165Z,786.51
2017-10-09T00:39:01.251Z,786.51
2017-10-09T00:39:05.459Z,786.54
2017-10-09T00:39:09.673Z,786.52
2017-10-09T00:39:13.754Z,786.5
2017-10-09T00:39:17.840Z,786.53
2017-10-09T00:39:22.171Z,786.54
2017-10-09T00:39:26.135Z,786.49
2017-10-09T00:39:30.343Z,786.52
2017-10-09T00:39:34.560Z,786.54
2017-10-09T00:39:38.776Z,786.54
2017-10-09T00:39:43.111Z,786.53
2017-10-09T00:39:47.318Z,786.54
2017-10-09T00:39:51.398Z,786.45
2017-10-09T00:39:55.608Z,786.46
2017-10-09T00:39:59.693Z,786.46
2017-10-09T00:40:03.805Z,786.48
2017-10-09T00:40:07.889Z,786.53
2017-10-09T00:40:11.851Z,786.5
2017-10-09T00:40:15.935Z,786.51
2017-10-09T00:40:20.149Z,786.49
2017-10-09T00:40:24.482Z,786.47
2017-10-09T00:40:28.444Z,786.49
2017-10-09T00:40:32.526Z,786.44
2017-10-09T00:40:36.492Z,786.54
2017-10-09T00:40:40.577Z,786.53
2017-10-09T00:40:44.918Z,786.48
2017-10-09T00:40:49.127Z,786.56
2017-10-09T00:40:53.335Z,786.51
2017-10-09T00:40:57.420Z,786.52
2017-10-09T00:41:01.634Z,786.55
2017-10-09T00:41:05.845Z,786.51
2017-10-09T00:41:09.800Z,786.53
2017-10-09T00:41:14.008Z,786.56
2017-10-09T00:41:17.838Z,786.49
2017-10-09T00:41:21.928Z,786.54
2017-10-09T00:41:26.006Z,786.54
2017-10-09T00:41:30.213Z,786.54
2017-10-09T00:41:34.545Z,786.54
2017-10-09T00:41:38.883Z,786.52
2017-10-09T00:41:42.841Z,786.56
2017-10-09T00:41:46.922Z,786.5
2017-10-09T00:41:51.129Z,786.53
2017-10-09T00:41:55.590Z,786.54
2017-10-09T00:41:59.546Z,786.55
2017-10-09T00:42:03.761Z,786.54
2017-10-09T00:42:07.847Z,786.54
2017-10-09T00:42:11.930Z,786.59
2017-10-09T00:42:16.144Z,786.58
2017-10-09T00:42:20.231Z,786.6
2017-10-09T00:42:24.438Z,786.55
2017-10-09T00:42:28.645Z,786.55
2017-10-09T00:42:32.608Z,786.52
2017-10-09T00:42:36.938Z,786.52
2017-10-09T00:42:41.023Z,786.52
2017-10-09T00:42:45.110Z,786.52
2017-10-09T00:42:49.196Z,786.56
2017-10-09T00:42:53.159Z,786.59
2017-10-09T00:42:57.364Z,786.56
2017-10-09T00:43:01.322Z,786.55
2017-10-09T00:43:05.155Z,786.54
2017-10-09T00:43:09.356Z,786.55
2017-10-09T00:43:13.441Z,786.56
2017-10-09T00:43:17.651Z,786.58
2017-10-09T00:43:21.731Z,786.55
2017-10-09T00:43:25.941Z,786.59
2017-10-09T00:43:30.033Z,786.56
2017-10-09T00:43:33.992Z,786.52
2017-10-09T00:43:37.953Z,786.49
2017-10-09T00:43:42.031Z,786.59
2017-10-09T00:43:46.242Z,786.55
2017-10-09T00:43:50.199Z,786.57
2017-10-09T00:43:54.153Z,786.58
2017-10-09T00:43:58.357Z,786.55
2017-10-09T00:44:02.319Z,786.55
2017-10-09T00:44:06.409Z,786.58
2017-10-09T00:44:10.493Z,786.59
2017-10-09T00:44:14.825Z,786.56
2017-10-09T00:44:19.037Z,786.61
2017-10-09T00:44:23.372Z,786.59
2017-10-09T00:44:27.582Z,786.55
2017-10-09T00:44:31.664Z,786.52
2017-10-09T00:44:36.003Z,786.57
2017-10-09T00:44:40.334Z,786.57
2017-10-09T00:44:44.547Z,786.6
2017-10-09T00:44:49.002Z,786.56
2017-10-09T00:44:53.466Z,786.5
2017-10-09T00:44:57.555Z,786.57
2017-10-09T00:45:01.639Z,786.59
2017-10-09T00:45:06.054Z,786.59
2017-10-09T00:45:10.135Z,786.59
2017-10-09T00:45:14.231Z,786.53
2017-10-09T00:45:18.437Z,786.53
2017-10-09T00:45:22.522Z,786.52
2017-10-09T00:45:26.729Z,786.52
2017-10-09T00:45:31.068Z,786.55
2017-10-09T00:45:35.158Z,786.6
2017-10-09T00:45:39.244Z,786.59
2017-10-09T00:45:43.456Z,786.59
2017-10-09T00:45:47.293Z,786.59
2017-10-09T00:45:51.376Z,786.64
2017-10-09T00:45:55.712Z,786.58
2017-10-09T00:45:59.548Z,786.63
2017-10-09T00:46:03.631Z,786.58
2017-10-09T00:46:07.585Z,786.61
2017-10-09T00:46:11.914Z,786.64
2017-10-09T00:46:16.006Z,786.6
2017-10-09T00:46:20.214Z,786.63
2017-10-09T00:46:24.166Z,786.64
2017-10-09T00:46:28.250Z,786.62
2017-10-09T00:46:32.333Z,786.62
2017-10-09T00:46:36.548Z,786.66
2017-10-09T00:46:40.755Z,786.64
2017-10-09T00:46:44.716Z,786.59
2017-10-09T00:46:48.552Z,786.62
2017-10-09T00:46:52.511Z,786.59
2017-10-09T00:46:56.596Z,786.65
2017-10-09T00:47:00.433Z,786.64
2017-10-09T00:47:04.816Z,786.65
2017-10-09T00:47:08.899Z,786.64
2017-10-09T00:47:12.986Z,786.66
2017-10-09T00:47:17.071Z,786.64
2017-10-09T00:47:20.913Z,786.59
2017-10-09T00:47:24.996Z,786.62
2017-10-09T00:47:29.083Z,786.6
2017-10-09T00:47:33.172Z,786.64
2017-10-09T00:47:37.641Z,786.59
2017-10-09T00:47:41.974Z,786.68
2017-10-09T00:47:46.308Z,786.67
2017-10-09T00:47:50.144Z,786.61
2017-10-09T00:47:54.353Z,786.61
2017-10-09T00:47:58.565Z,786.6
2017-10-09T00:48:02.652Z,786.64
2017-10-09T00:48:06.981Z,786.65
2017-10-09T00:48:10.938Z,786.67
2017-10-09T00:48:15.026Z,786.68
2017-10-09T00:48:18.879Z,786.67
2017-10-09T00:48:23.081Z,786.65
2017-10-09T00:48:27.413Z,786.66
2017-10-09T00:48:31.503Z,786.68
2017-10-09T00:48:35.464Z,786.67
2017-10-09T00:48:39.814Z,786.64
2017-10-09T00:48:44.068Z,786.69
2017-10-09T00:48:48.289Z,786.68
2017-10-09T00:48:52.617Z,786.67
2017-10-09T00:48:56.831Z,786.66
2017-10-09T00:49:00.916Z,786.7
2017-10-09T00:49:05.252Z,786.66
2017-10-09T00:49:09.214Z,786.68
2017-10-09T00:49:13.170Z,786.68
2017-10-09T00:49:17.253Z,786.64
2017-10-09T00:49:21.587Z,786.7
2017-10-09T00:49:25.797Z,786.7
2017-10-09T00:49:29.887Z,786.68
2017-10-09T00:49:34.087Z,786.69
2017-10-09T00:49:38.295Z,786.7
2017-10-09T00:49:42.129Z,786.72
2017-10-09T00:49:46.088Z,786.65
2017-10-09T00:49:50.178Z,786.71
2017-10-09T00:49:54.511Z,786.7
2017-10-09T00:49:58.845Z,786.69
2017-10-09T00:50:03.393Z,786.69
2017-10-09T00:50:07.627Z,786.68
2017-10-09T00:50:11.595Z,786.72
2017-10-09T00:50:15.801Z,786.7
2017-10-09T00:50:20.015Z,786.69
2017-10-09T00:50:24.475Z,786.72
2017-10-09T00:50:28.561Z,786.71
2017-10-09T00:50:32.646Z,786.72
2017-10-09T00:50:36.730Z,786.7
2017-10-09T00:50:40.935Z,786.71
2017-10-09T00:50:44.926Z,786.7
2017-10-09T00:50:48.900Z,786.66
2017-10-09T00:50:53.130Z,786.69
2017-10-09T00:50:57.335Z,786.74
2017-10-09T00:51:01.429Z,786.74
2017-10-09T00:51:05.687Z,786.73
2017-10-09T00:51:09.645Z,786.76
2017-10-09T00:51:13.853Z,786.73
2017-10-09T00:51:17.934Z,786.75
2017-10-09T00:51:21.774Z,786.68
2017-10-09T00:51:26.116Z,786.69
2017-10-09T00:51:30.201Z,786.72
2017-10-09T00:51:34.164Z,786.7
2017-10-09T00:51:38.122Z,786.71
2017-10-09T00:51:41.961Z,786.74
2017-10-09T00:51:46.166Z,786.69
2017-10-09T00:51:50.380Z,786.73
2017-10-09T00:51:54.591Z,786.71
2017-10-09T00:51:58.936Z,786.69
2017-10-09T00:52:03.324Z,786.71
2017-10-09T00:52:07.527Z,786.72
2017-10-09T00:52:11.614Z,786.68
2017-10-09T00:52:15.948Z,786.68
2017-10-09T00:52:19.910Z,786.68